Cherokee Falls, South Carolina
Current Conditions -  °F | °C
As of 7:35 AM on Thursday 23 Oct 2014 (Local Time) from KEHO Reporting Station
Clear Clear  
Wind Chill: 35°   Ceiling: Unl
Heat Index: 38°   Visibility: 10mi
Dew Point: 36°   Wind: 5mph
Humidity: 90%   Direction: 270°W
Pressure: 30.09"   Gusts: NA
Location:  35.1147°N, 81.4908°W
Report Text: KEHO 231135Z AUTO 27004KT 10SM CLR 04/02 A3009 RMK AO2 T00360021
Loading
Personal Weather Stations






























Interactive Weather Map New forecast layout! Learn more

10-Day Weather Forecast

Advertisements
Track Severe Weather on mobile